Time;durP1;ratioP1;P1;durP2;ratioP2;P2;SDS_P1;SDS_P2;PMS_P1;PMS_P2;Temp;Humidity;BMP_temperature;BMP_pressure;BME280_temperature;BME280_humidity;BME280_pressure;Samples;Min_cycle;Max_cycle;Signal;HPM_P1;HPM_P2
2022/06/13 00:00:26;;;;;;;2.58;1.45;;;13.80;99.90;;;;;;5075823;28;20083;-71
2022/06/13 00:02:51;;;;;;;5.20;1.35;;;13.70;99.90;;;;;;5076098;28;20090;-71
2022/06/13 00:05:18;;;;;;;4.28;1.55;;;13.70;99.90;;;;;;5075959;28;20040;-71
2022/06/13 00:07:44;;;;;;;6.53;1.42;;;13.70;99.90;;;;;;5076052;28;20035;-71
2022/06/13 00:10:12;;;;;;;1.60;1.10;;;13.50;99.90;;;;;;5075865;28;20036;-71
2022/06/13 00:12:40;;;;;;;3.70;1.92;;;14.10;99.90;;;;;;5094256;28;20395;-71
2022/06/13 00:15:06;;;;;;;1.85;1.23;;;13.70;99.90;;;;;;5075744;28;20036;-71
2022/06/13 00:17:32;;;;;;;2.72;1.63;;;13.70;99.90;;;;;;5075889;28;20062;-71
2022/06/13 00:19:58;;;;;;;4.95;1.42;;;14.20;99.90;;;;;;5059261;28;20040;-71
2022/06/13 00:22:24;;;;;;;3.88;1.67;;;13.60;99.90;;;;;;5075917;28;20043;-71
2022/06/13 00:24:50;;;;;;;7.15;2.00;;;13.60;99.90;;;;;;5059171;28;20044;-71
2022/06/13 00:27:15;;;;;;;2.30;1.42;;;13.60;99.90;;;;;;5059233;28;20047;-71
2022/06/13 00:29:42;;;;;;;4.88;1.27;;;13.80;99.90;;;;;;5075548;28;20043;-71
2022/06/13 00:32:08;;;;;;;4.63;1.63;;;13.50;99.90;;;;;;5042800;28;20040;-71
2022/06/13 00:34:33;;;;;;;7.03;2.40;;;13.80;99.90;;;;;;5075731;28;20040;-71
2022/06/13 00:36:59;;;;;;;5.25;1.38;;;13.80;99.90;;;;;;5075966;28;20046;-71
2022/06/13 00:39:25;;;;;;;3.15;1.45;;;13.70;99.90;;;;;;5075663;28;20052;-71
2022/06/13 00:41:51;;;;;;;5.07;2.17;;;13.80;99.90;;;;;;5042272;28;20142;-71
2022/06/13 00:44:25;;;;;;;3.10;1.25;;;13.80;99.90;;;;;;5075596;28;20063;-71
2022/06/13 00:46:51;;;;;;;7.65;1.70;;;13.50;99.90;;;;;;5075517;28;20051;-71
2022/06/13 00:49:21;;;;;;;2.47;1.80;;;13.60;99.90;;;;;;5075196;28;20491;-71
2022/06/13 00:51:50;;;;;;;3.22;1.45;;;13.80;99.90;;;;;;5075741;28;20085;-71
2022/06/13 00:54:18;;;;;;;7.15;1.85;;;13.50;99.90;;;;;;5075488;28;20043;-71
2022/06/13 00:56:45;;;;;;;2.38;1.80;;;13.80;99.90;;;;;;5075269;28;20036;-71
2022/06/13 00:59:14;;;;;;;3.05;1.70;;;13.50;99.90;;;;;;5058766;28;20157;-71
2022/06/13 01:01:40;;;;;;;2.30;1.50;;;13.50;99.90;;;;;;5075373;28;20036;-71
2022/06/13 01:04:08;;;;;;;4.03;1.63;;;13.40;99.90;;;;;;5075363;28;20445;-71
2022/06/13 01:06:37;;;;;;;4.75;1.50;;;13.20;99.90;;;;;;5075186;28;20123;-71
2022/06/13 01:09:05;;;;;;;3.58;1.70;;;13.40;99.90;;;;;;5074944;28;20395;-71
2022/06/13 01:11:31;;;;;;;4.20;1.63;;;13.50;99.90;;;;;;5075194;28;20040;-71
2022/06/13 01:14:28;;;;;;;2.55;1.52;;;13.50;99.90;;;;;;5075265;28;20122;-71
2022/06/13 01:17:16;;;;;;;3.33;1.90;;;13.60;99.90;;;;;;5074953;28;20072;-71
2022/06/13 01:20:02;;;;;;;2.08;1.23;;;13.40;99.90;;;;;;5075100;28;20483;-71
2022/06/13 01:23:11;;;;;;;2.90;1.63;;;13.40;99.90;;;;;;5074872;28;20070;-71
2022/06/13 01:26:14;;;;;;;2.90;1.70;;;13.40;99.90;;;;;;5074915;28;20044;-71
2022/06/13 01:29:06;;;;;;;3.20;1.58;;;13.40;99.90;;;;;;5074846;28;20039;-71
2022/06/13 01:32:02;;;;;;;7.00;1.90;;;13.60;99.90;;;;;;5074899;28;20047;-71
2022/06/13 01:34:55;;;;;;;4.55;1.63;;;13.90;99.90;;;;;;5074737;28;20078;-71
2022/06/13 01:37:33;;;;;;;1.58;1.10;;;13.40;99.90;;;;;;5093066;28;20079;-71
2022/06/13 01:40:14;;;;;;;3.63;1.98;;;13.40;99.90;;;;;;5074577;28;20047;-71
2022/06/13 01:43:19;;;;;;;3.38;1.52;;;13.40;99.90;;;;;;5074596;28;20232;-71
2022/06/13 01:45:55;;;;;;;5.50;1.98;;;13.30;99.90;;;;;;5074290;28;20059;-71
2022/06/13 01:48:45;;;;;;;2.50;1.40;;;13.30;99.90;;;;;;5074043;28;20155;-71
2022/06/13 01:51:27;;;;;;;3.33;1.60;;;13.40;99.90;;;;;;5074314;28;20044;-71
2022/06/13 01:54:08;;;;;;;4.65;1.65;;;13.20;99.90;;;;;;5074723;28;20502;-71
2022/06/13 01:56:49;;;;;;;4.03;1.55;;;13.20;99.90;;;;;;5074388;28;20127;-71
2022/06/13 02:00:00;;;;;;;8.02;1.65;;;13.10;99.90;;;;;;5074357;28;20070;-71
2022/06/13 02:02:35;;;;;;;8.00;1.80;;;13.20;99.90;;;;;;5057985;28;20491;-71
2022/06/13 02:05:10;;;;;;;2.70;1.58;;;13.20;99.90;;;;;;5057714;28;20234;-71
2022/06/13 02:07:45;;;;;;;3.03;1.45;;;13.30;99.90;;;;;;5074681;28;20131;-71
2022/06/13 02:10:34;;;;;;;3.20;1.45;;;12.90;99.90;;;;;;5057599;28;20035;-71
2022/06/13 02:13:18;;;;;;;3.55;1.75;;;13.90;99.90;;;;;;5074326;28;20040;-71
2022/06/13 02:15:49;;;;;;;5.57;2.10;;;13.20;99.90;;;;;;5074260;28;20040;-71
2022/06/13 02:18:27;;;;;;;3.85;1.85;;;13.70;99.90;;;;;;5074260;28;20044;-71
2022/06/13 02:20:57;;;;;;;4.97;1.75;;;13.20;99.90;;;;;;5092468;28;20044;-71
2022/06/13 02:23:27;;;;;;;3.17;1.65;;;13.10;99.90;;;;;;5077964;28;20065;-71
2022/06/13 02:26:04;;;;;;;3.80;2.10;;;13.20;99.90;;;;;;5078049;28;20044;-71
2022/06/13 02:28:47;;;;;;;4.38;1.70;;;13.40;99.90;;;;;;5078198;28;20051;-71
2022/06/13 02:31:20;;;;;;;3.88;1.80;;;13.00;99.90;;;;;;5077821;28;20040;-71
2022/06/13 02:33:54;;;;;;;3.42;1.65;;;13.20;99.90;;;;;;5077853;28;20051;-71
2022/06/13 02:36:23;;;;;;;2.67;1.40;;;13.10;99.90;;;;;;5095887;28;20036;-71
2022/06/13 02:39:03;;;;;;;3.90;1.92;;;13.10;99.90;;;;;;5077605;28;20093;-71
2022/06/13 02:41:37;;;;;;;2.58;1.73;;;13.50;99.90;;;;;;5077919;28;20047;-71
2022/06/13 02:44:15;;;;;;;5.18;1.55;;;13.00;99.90;;;;;;5061004;28;20040;-71
2022/06/13 02:46:52;;;;;;;3.90;1.48;;;13.00;99.90;;;;;;5077640;28;20044;-71
2022/06/13 02:49:25;;;;;;;4.97;1.95;;;13.20;99.90;;;;;;5077246;28;20130;-71
2022/06/13 02:52:12;;;;;;;3.90;1.85;;;13.00;99.90;;;;;;5077437;28;20091;-71
2022/06/13 02:54:49;;;;;;;3.67;1.63;;;13.40;99.90;;;;;;5077485;28;20036;-71
2022/06/13 02:57:38;;;;;;;3.85;1.52;;;13.10;99.90;;;;;;5077435;28;20040;-71
2022/06/13 03:00:10;;;;;;;4.05;1.75;;;13.10;99.90;;;;;;5077400;28;20072;-71
2022/06/13 03:02:44;;;;;;;8.23;2.33;;;13.10;99.90;;;;;;5077220;28;20502;-71
2022/06/13 03:05:22;;;;;;;4.25;1.77;;;13.10;99.90;;;;;;5077211;28;20196;-71
2022/06/13 03:08:14;;;;;;;5.68;2.30;;;13.10;99.90;;;;;;5077497;28;20046;-71
2022/06/13 03:10:49;;;;;;;6.50;2.13;;;13.50;99.90;;;;;;5031355;28;20059;-71
2022/06/13 03:13:39;;;;;;;4.13;2.15;;;13.20;99.90;;;;;;5077045;28;20087;-71
2022/06/13 03:16:46;;;;;;;5.53;1.73;;;13.20;99.90;;;;;;5077038;28;20205;-71
2022/06/13 03:19:22;;;;;;;6.03;2.22;;;13.10;99.90;;;;;;4997355;28;20059;-71
2022/06/13 03:21:52;;;;;;;6.97;2.53;;;13.10;99.90;;;;;;5076835;28;20126;-71
2022/06/13 03:24:28;;;;;;;7.43;1.85;;;13.40;99.90;;;;;;5076955;28;20483;-71
2022/06/13 03:27:03;;;;;;;4.38;2.40;;;13.20;99.90;;;;;;5077250;28;20498;-71
2022/06/13 03:29:50;;;;;;;5.85;2.13;;;14.00;99.90;;;;;;5060095;28;20132;-71
2022/06/13 03:32:26;;;;;;;5.40;1.98;;;13.20;99.90;;;;;;5076697;28;20498;-71
2022/06/13 03:34:56;;;;;;;3.42;1.65;;;13.20;99.90;;;;;;5076611;28;20040;-71
2022/06/13 03:37:47;;;;;;;3.70;2.17;;;13.20;99.90;;;;;;5076557;28;20044;-71
2022/06/13 03:40:27;;;;;;;4.88;1.90;;;13.40;99.90;;;;;;5064940;28;20415;-71
2022/06/13 03:43:03;;;;;;;4.03;2.08;;;13.20;99.90;;;;;;5076523;28;20185;-71
2022/06/13 03:45:54;;;;;;;3.80;1.50;;;13.10;99.90;;;;;;5076666;28;20044;-71
2022/06/13 03:48:22;;;;;;;3.50;1.83;;;13.30;99.90;;;;;;5076217;28;20189;-71
2022/06/13 03:50:57;;;;;;;4.13;1.83;;;13.30;99.90;;;;;;5076423;28;20123;-71
2022/06/13 03:53:41;;;;;;;4.70;2.00;;;13.30;99.90;;;;;;5076585;28;20036;-71
2022/06/13 03:56:27;;;;;;;4.82;2.38;;;13.40;99.90;;;;;;5076360;28;20039;-71
2022/06/13 03:59:04;;;;;;;6.68;2.78;;;13.40;99.90;;;;;;5076422;28;20077;-71
2022/06/13 04:01:42;;;;;;;4.93;2.38;;;13.40;99.90;;;;;;5076476;28;20044;-71
2022/06/13 04:04:18;;;;;;;6.95;2.45;;;13.40;99.90;;;;;;5076201;28;20044;-71
2022/06/13 04:06:44;;;;;;;5.05;2.08;;;13.50;99.90;;;;;;5076253;28;20075;-71
2022/06/13 04:09:22;;;;;;;4.03;2.05;;;13.40;99.90;;;;;;5075732;28;20036;-71
2022/06/13 04:12:10;;;;;;;5.22;2.05;;;13.70;99.90;;;;;;5076201;28;20044;-71
2022/06/13 04:14:44;;;;;;;6.03;2.22;;;13.50;99.90;;;;;;5075901;28;20393;-71
2022/06/13 04:17:19;;;;;;;7.03;2.38;;;13.70;99.90;;;;;;5076086;28;20506;-71
2022/06/13 04:19:54;;;;;;;7.30;2.00;;;13.60;99.90;;;;;;5075787;28;20043;-71
2022/06/13 04:22:22;;;;;;;5.28;1.90;;;13.60;99.90;;;;;;5075880;28;20123;-71
2022/06/13 04:25:23;;;;;;;3.92;1.75;;;13.60;99.90;;;;;;5075682;28;20055;-72
2022/06/13 04:27:58;;;;;;;2.47;1.45;;;13.60;99.90;;;;;;5093695;28;20089;-70
2022/06/13 04:30:28;;;;;;;4.63;2.03;;;13.70;99.90;;;;;;5075490;28;20440;-71
2022/06/13 04:32:58;;;;;;;4.13;2.13;;;13.70;99.90;;;;;;5075752;28;20063;-71
2022/06/13 04:35:25;;;;;;;7.18;1.58;;;13.70;99.90;;;;;;5075784;28;20083;-71
2022/06/13 04:37:51;;;;;;;5.20;2.25;;;13.70;99.90;;;;;;5059145;28;20051;-71
2022/06/13 04:40:23;;;;;;;4.47;1.80;;;13.80;99.90;;;;;;5075448;28;20035;-71
2022/06/13 04:42:51;;;;;;;4.63;1.88;;;13.80;99.90;;;;;;5075282;28;20082;-71
2022/06/13 04:45:24;;;;;;;3.03;1.52;;;13.80;99.90;;;;;;5058038;28;20083;-71
2022/06/13 04:47:51;;;;;;;4.82;1.80;;;13.80;99.90;;;;;;5074988;28;20411;-71
2022/06/13 04:50:23;;;;;;;1.70;1.35;;;14.00;99.90;;;;;;5074983;28;20054;-71
2022/06/13 04:52:51;;;;;;;4.05;1.67;;;14.00;99.90;;;;;;5075117;28;20149;-71
2022/06/13 04:55:27;;;;;;;2.97;1.70;;;14.10;99.90;;;;;;5058510;28;20127;-71
2022/06/13 04:57:52;;;;;;;4.93;1.50;;;14.10;99.90;;;;;;5058581;28;20527;-71
2022/06/13 05:00:18;;;;;;;2.38;1.20;;;14.20;99.90;;;;;;5074938;28;20131;-71
2022/06/13 05:02:47;;;;;;;3.88;1.58;;;14.20;99.90;;;;;;5075040;28;20487;-71
2022/06/13 05:05:31;;;;;;;4.35;1.10;;;14.30;99.90;;;;;;5074953;28;20071;-71
2022/06/13 05:07:58;;;;;;;5.85;1.25;;;14.30;99.90;;;;;;5075128;28;20069;-71
2022/06/13 05:10:29;;;;;;;3.10;1.33;;;14.30;99.90;;;;;;5074851;28;20059;-71
2022/06/13 05:12:55;;;;;;;;;;;14.40;99.90;;;;;;5075351;28;20036;-71
2022/06/13 05:15:25;;;;;;;2.13;0.90;;;14.40;99.90;;;;;;5074818;28;19920;-71
2022/06/13 05:18:26;;;;;;;3.25;1.23;;;14.50;99.90;;;;;;5074999;28;20484;-71
2022/06/13 05:21:11;;;;;;;2.38;1.02;;;14.60;99.90;;;;;;5074839;28;20044;-72
2022/06/13 05:23:40;;;;;;;3.63;0.73;;;;;;;;;;5075052;28;20067;-72
2022/06/13 05:26:07;;;;;;;1.85;0.70;;;;;;;;;;5074984;28;20419;-72
2022/06/13 05:28:34;;;;;;;1.92;0.80;;;15.70;99.90;;;;;;5074778;28;20493;-71
2022/06/13 05:31:16;;;;;;;5.50;1.13;;;15.30;99.90;;;;;;5058213;28;20047;-72
2022/06/13 05:33:42;;;;;;;4.93;1.15;;;15.30;99.90;;;;;;5075099;28;20032;-72
2022/06/13 05:36:12;;;;;;;1.35;0.60;;;15.20;99.90;;;;;;5074860;28;20085;-72
2022/06/13 05:38:47;;;;;;;3.30;0.85;;;15.00;99.90;;;;;;5074690;28;20032;-72
2022/06/13 05:41:13;;;;;;;4.20;0.93;;;15.00;99.90;;;;;;5058011;28;20043;-72
2022/06/13 05:43:38;;;;;;;3.20;1.30;;;14.80;99.90;;;;;;5074922;28;20394;-72
2022/06/13 05:46:05;;;;;;;1.83;0.47;;;14.60;99.90;;;;;;5074545;28;20047;-70
2022/06/13 05:48:31;;;;;;;1.25;0.63;;;14.50;99.90;;;;;;5074447;28;20109;-71
2022/06/13 05:50:57;;;;;;;1.58;0.70;;;14.20;99.90;;;;;;5074759;28;20040;-70
2022/06/13 05:53:24;;;;;;;1.80;0.73;;;;;;;;;;5074847;28;20036;-71
2022/06/13 05:55:52;;;;;;;0.90;0.60;;;13.90;99.90;;;;;;5074403;28;20036;-71
2022/06/13 05:58:18;;;;;;;1.48;0.80;;;14.00;99.90;;;;;;5078712;28;20040;-69
2022/06/13 06:00:58;;;;;;;0.47;0.40;;;13.80;99.90;;;;;;5061670;28;20032;-70
2022/06/13 06:03:25;;;;;;;0.93;0.60;;;13.80;99.90;;;;;;5045246;28;20040;-71
2022/06/13 06:05:52;;;;;;;1.00;0.47;;;14.10;99.90;;;;;;5078802;28;20483;-70
2022/06/13 06:08:24;;;;;;;1.17;0.60;;;13.80;99.90;;;;;;5078806;28;20065;-71
2022/06/13 06:10:52;;;;;;;1.63;0.68;;;13.80;99.90;;;;;;5078558;28;20036;-71
2022/06/13 06:13:18;;;;;;;0.55;0.40;;;14.00;99.90;;;;;;5078889;28;20040;-71
2022/06/13 06:15:46;;;;;;;3.20;0.68;;;14.30;99.90;;;;;;5078645;28;20098;-71
2022/06/13 06:18:12;;;;;;;1.42;0.43;;;14.40;99.90;;;;;;5078334;28;20040;-75
2022/06/13 06:20:39;;;;;;;2.13;0.85;;;14.60;99.90;;;;;;5078216;28;20040;-70
2022/06/13 06:23:06;;;;;;;1.35;0.55;;;14.80;99.90;;;;;;5061792;28;20411;-70
2022/06/13 06:25:32;;;;;;;0.95;0.65;;;14.90;99.90;;;;;;5061254;28;20055;-70
2022/06/13 06:27:58;;;;;;;3.75;0.45;;;15.40;99.90;;;;;;5061072;28;20040;-72
2022/06/13 06:30:27;;;;;;;0.90;0.60;;;15.30;99.90;;;;;;5077620;28;20048;-71
2022/06/13 06:32:53;;;;;;;2.83;0.43;;;;;;;;;;5061528;28;20048;-71
2022/06/13 06:35:20;;;;;;;0.73;0.40;;;;;;;;;;5077963;28;20036;-71
2022/06/13 06:37:48;;;;;;;0.52;0.30;;;;;;;;;;5077965;28;20090;-71
2022/06/13 06:40:19;;;;;;;4.10;0.43;;;;;;;;;;5078247;28;20131;-71
2022/06/13 06:42:45;;;;;;;0.45;0.30;;;;;;;;;;5077426;28;20039;-71
2022/06/13 06:45:11;;;;;;;0.28;0.28;;;;;;;;;;5077776;28;20036;-71
2022/06/13 06:47:39;;;;;;;1.45;0.35;;;;;;;;;;5060779;28;20063;-71
2022/06/13 06:50:05;;;;;;;0.22;0.22;;;;;;;;;;5077488;28;20050;-71
2022/06/13 06:52:32;;;;;;;2.45;0.50;;;;;;;;;;5077584;28;20042;-71
2022/06/13 07:00:27;;;;;;;1.17;0.60;;;;;;;;;;5077656;28;20097;-72
2022/06/13 07:02:53;;;;;;;0.82;0.40;;;;;;;;;;5077413;28;20101;-71
2022/06/13 07:05:19;;;;;;;0.65;0.35;;;;;;;;;;5060915;28;20442;-71
2022/06/13 07:07:46;;;;;;;1.30;0.40;;;;;;;;;;5077122;28;20051;-71
2022/06/13 07:10:13;;;;;;;3.40;0.52;;;;;;;;;;5077324;28;20407;-71
2022/06/13 07:12:39;;;;;;;1.30;0.43;;;;;;;;;;5077674;28;20502;-70
2022/06/13 07:15:05;;;;;;;0.65;0.32;;;;;;;;;;5077251;28;20040;-71
2022/06/13 07:17:31;;;;;;;0.43;0.40;;;;;;;;;;5077386;28;20076;-71
2022/06/13 07:19:57;;;;;;;3.67;0.47;;;;;;;;;;5077082;28;20091;-70
2022/06/13 07:22:24;;;;;;;2.00;0.52;;;;;;;;;;5076938;28;20044;-71
2022/06/13 07:24:51;;;;;;;0.30;0.30;;;;;;;;;;5060044;28;20043;-71
2022/06/13 07:27:18;;;;;;;0.88;0.47;;;;;;;;;;5060259;28;20085;-70
2022/06/13 07:29:44;;;;;;;2.78;0.57;;;;;;;;;;5076608;28;20403;-70
2022/06/13 07:32:15;;;;;;;2.35;0.52;;;;;;;;;;5076803;28;20054;-71
2022/06/13 07:34:43;;;;;;;0.98;0.63;;;;;;;;;;5059854;28;20040;-71
2022/06/13 07:37:11;;;;;;;0.40;0.40;;;;;;;;;;5076432;28;20043;-71
2022/06/13 07:39:37;;;;;;;1.60;0.57;;;;;;;;;;5059930;28;20426;-71
2022/06/13 07:42:04;;;;;;;0.65;0.35;;;;;;;;;;5076397;28;20044;-71
2022/06/13 07:44:37;;;;;;;2.83;0.40;;;;;;;;;;5059971;28;20422;-71
2022/06/13 07:47:03;;;;;;;1.20;0.55;;;;;;;;;;5076268;28;20118;-71
2022/06/13 07:49:29;;;;;;;3.05;0.50;;;;;;;;;;5076147;28;20087;-71
2022/06/13 07:51:55;;;;;;;0.30;0.30;;;16.80;99.90;;;;;;5076525;28;20044;-71
2022/06/13 07:54:21;;;;;;;0.43;0.40;;;16.80;99.90;;;;;;5076150;28;20039;-73
2022/06/13 07:56:47;;;;;;;1.25;0.60;;;16.60;99.90;;;;;;5043071;28;20036;-71
2022/06/13 07:59:27;;;;;;;1.67;0.50;;;16.70;99.90;;;;;;5076113;28;20545;-71
2022/06/13 08:01:53;;;;;;;3.15;0.52;;;16.90;99.90;;;;;;5059358;28;20040;-72
2022/06/13 08:04:19;;;;;;;2.17;0.60;;;;;;;;;;5075862;28;20453;-71
2022/06/13 08:06:45;;;;;;;0.95;0.60;;;17.00;99.90;;;;;;5076084;28;20113;-71
2022/06/13 08:09:11;;;;;;;0.98;0.50;;;17.00;99.90;;;;;;5059304;28;20131;-71
2022/06/13 08:11:43;;;;;;;1.05;0.57;;;17.00;99.90;;;;;;5059071;28;20051;-71
2022/06/13 08:14:09;;;;;;;0.40;0.40;;;16.80;99.90;;;;;;5075720;28;20377;-71
2022/06/13 08:16:35;;;;;;;2.30;0.40;;;16.80;99.90;;;;;;5075616;28;20300;-71
2022/06/13 08:19:05;;;;;;;1.60;0.60;;;16.80;99.90;;;;;;5074975;28;20048;-71
2022/06/13 08:21:33;;;;;;;3.07;0.83;;;16.90;99.90;;;;;;5059272;28;20040;-71
2022/06/13 08:23:59;;;;;;;1.75;0.60;;;16.90;99.90;;;;;;5059014;28;20123;-71
2022/06/13 08:26:25;;;;;;;0.77;0.40;;;16.70;99.90;;;;;;5075689;28;20138;-71
2022/06/13 08:28:50;;;;;;;2.10;0.60;;;16.50;99.90;;;;;;5076027;28;20040;-71
2022/06/13 08:31:19;;;;;;;1.02;0.50;;;16.20;99.90;;;;;;5042362;28;20123;-71
2022/06/13 08:33:45;;;;;;;0.95;0.55;;;16.00;99.90;;;;;;5059001;28;20036;-71
2022/06/13 08:36:12;;;;;;;1.98;0.40;;;15.90;99.90;;;;;;5059254;28;20498;-71
2022/06/13 08:38:38;;;;;;;3.50;0.90;;;15.80;99.90;;;;;;5075784;28;20081;-71
2022/06/13 08:41:10;;;;;;;1.45;0.60;;;15.80;99.90;;;;;;5075581;28;20118;-71
2022/06/13 08:43:35;;;;;;;4.35;0.50;;;15.70;99.90;;;;;;5075326;28;20082;-71
2022/06/13 08:46:16;;;;;;;0.75;0.52;;;15.80;99.90;;;;;;5075398;28;20067;-71
2022/06/13 08:48:44;;;;;;;0.57;0.50;;;16.00;99.90;;;;;;5058501;28;20123;-71
2022/06/13 08:51:19;;;;;;;1.75;0.50;;;16.40;99.90;;;;;;5093562;28;20048;-71
2022/06/13 08:54:00;;;;;;;1.55;0.38;;;16.80;99.90;;;;;;5058688;28;20051;-72
2022/06/13 08:56:29;;;;;;;;;;;17.10;99.90;;;;;;5059171;28;20070;-71
2022/06/13 08:59:23;;;;;;;3.70;0.40;;;17.10;99.90;;;;;;5075215;28;20023;-71
2022/06/13 09:02:45;;;;;;;0.95;0.40;;;16.90;99.90;;;;;;5075088;28;20081;-71
2022/06/13 09:05:13;;;;;;;2.85;0.57;;;16.70;99.90;;;;;;5016256;28;20139;-71
2022/06/13 09:07:59;;;;;;;0.30;0.30;;;16.70;99.90;;;;;;5075122;28;20136;-72
2022/06/13 09:10:32;;;;;;;1.38;0.68;;;16.80;99.90;;;;;;5058446;28;20446;-71
2022/06/13 09:13:04;;;;;;;0.93;0.40;;;16.80;99.90;;;;;;5075141;28;20040;-72
2022/06/13 09:16:00;;;;;;;1.25;0.60;;;16.90;99.90;;;;;;5058361;28;20392;-71
2022/06/13 09:18:40;;;;;;;1.05;0.45;;;16.90;99.90;;;;;;5046721;28;20186;-71
2022/06/13 09:21:14;;;;;;;0.60;0.30;;;17.10;99.90;;;;;;5058287;28;20044;-72
2022/06/13 09:24:03;;;;;;;1.48;0.40;;;17.40;99.90;;;;;;5058225;28;20040;-72
2022/06/13 09:26:40;;;;;;;5.88;0.73;;;17.60;99.90;;;;;;5074758;28;20044;-71
2022/06/13 09:29:22;;;;;;;0.38;0.30;;;17.90;99.90;;;;;;5075055;28;20032;-71
2022/06/13 09:32:11;;;;;;;0.52;0.38;;;17.70;99.90;;;;;;5074316;28;20122;-71
2022/06/13 09:34:47;;;;;;;1.08;0.50;;;17.60;99.90;;;;;;5057922;28;20059;-71
2022/06/13 09:37:21;;;;;;;1.10;0.47;;;17.30;99.90;;;;;;5074890;28;20032;-72
2022/06/13 09:39:47;;;;;;;1.05;0.40;;;17.20;99.90;;;;;;5058360;28;20544;-71
2022/06/13 09:42:49;;;;;;;0.30;0.30;;;16.90;99.90;;;;;;5074742;28;20043;-71
2022/06/13 09:45:43;;;;;;;1.17;0.38;;;17.10;99.90;;;;;;5057080;28;20069;-71
2022/06/13 09:48:14;;;;;;;1.80;0.32;;;17.40;99.90;;;;;;5074218;28;20079;-70
2022/06/13 09:50:52;;;;;;;1.10;0.30;;;17.10;99.90;;;;;;5074710;28;20044;-69
2022/06/13 09:53:21;;;;;;;2.17;0.47;;;;;;;;;;5074903;28;20039;-70
2022/06/13 09:56:32;;;;;;;1.48;0.77;;;15.80;99.90;;;;;;5074672;28;20441;-71
2022/06/13 09:59:20;;;;;;;0.30;0.30;;;15.50;99.90;;;;;;4974971;28;20038;-71
2022/06/13 10:02:04;;;;;;;2.03;0.50;;;15.50;99.90;;;;;;5074421;28;20122;-71
2022/06/13 10:04:58;;;;;;;0.63;0.60;;;15.70;99.90;;;;;;5074823;28;20419;-71
2022/06/13 10:07:38;;;;;;;0.82;0.38;;;16.10;99.90;;;;;;5074689;28;20434;-71
2022/06/13 10:10:43;;;;;;;1.15;0.43;;;16.30;99.90;;;;;;5074234;28;20040;-71
2022/06/13 10:13:23;;;;;;;3.28;0.70;;;16.10;99.90;;;;;;4993858;28;20055;-71
2022/06/13 10:15:58;;;;;;;1.38;0.50;;;16.90;99.90;;;;;;5057725;28;20036;-71
2022/06/13 10:19:00;;;;;;;0.90;0.25;;;17.30;99.90;;;;;;5074496;28;20313;-71
2022/06/13 10:21:36;;;;;;;1.15;0.40;;;16.90;99.90;;;;;;5057317;28;20123;-71
2022/06/13 10:24:26;;;;;;;3.45;0.80;;;16.50;99.90;;;;;;5074418;28;20039;-71
2022/06/13 10:27:13;;;;;;;0.65;0.47;;;16.10;99.90;;;;;;5074211;28;20043;-71
2022/06/13 10:29:45;;;;;;;0.85;0.45;;;15.70;99.90;;;;;;5074092;28;20055;-70
2022/06/13 10:32:41;;;;;;;1.67;0.38;;;15.50;99.90;;;;;;5074307;28;20476;-71
2022/06/13 10:35:09;;;;;;;2.28;0.60;;;15.50;99.90;;;;;;5074281;28;20139;-71
2022/06/13 10:37:50;;;;;;;1.23;0.50;;;15.70;99.90;;;;;;5057384;28;20087;-71
2022/06/13 10:40:16;;;;;;;1.27;0.40;;;15.90;99.90;;;;;;5073868;28;20044;-71
2022/06/13 10:42:42;;;;;;;4.15;0.82;;;16.20;99.90;;;;;;5075662;28;20081;-71
2022/06/13 10:45:11;;;;;;;0.40;0.35;;;16.30;99.90;;;;;;5077925;28;20047;-71
2022/06/13 10:48:00;;;;;;;0.32;0.30;;;16.40;99.90;;;;;;5077318;28;20048;-71
2022/06/13 10:50:34;;;;;;;1.60;0.45;;;16.70;99.90;;;;;;5077492;28;20396;-71
2022/06/13 10:53:08;;;;;;;0.40;0.25;;;16.90;99.90;;;;;;5077809;28;20036;-71
2022/06/13 10:55:40;;;;;;;0.98;0.60;;;16.80;99.90;;;;;;5077723;28;20052;-71
2022/06/13 10:58:20;;;;;;;0.40;0.40;;;16.50;99.90;;;;;;5077450;28;20036;-71
2022/06/13 11:01:09;;;;;;;1.52;0.60;;;16.40;99.90;;;;;;5060683;28;20156;-71
2022/06/13 11:03:35;;;;;;;4.47;0.73;;;16.50;99.90;;;;;;5095655;28;20043;-71
2022/06/13 11:06:06;;;;;;;0.47;0.30;;;17.90;99.90;;;;;;5077343;28;20047;-71
2022/06/13 11:08:33;;;;;;;1.92;0.45;;;16.70;99.90;;;;;;5077449;28;20036;-71
2022/06/13 11:11:02;;;;;;;3.95;0.43;;;16.80;99.90;;;;;;5077434;28;20063;-71
2022/06/13 11:13:38;;;;;;;2.47;0.52;;;16.80;99.90;;;;;;5077310;28;20411;-71
2022/06/13 11:22:38;;;;;;;0.75;0.38;;;16.70;99.90;;;;;;5077046;28;20473;-71
2022/06/13 11:25:27;;;;;;;1.95;0.80;;;16.90;99.90;;;;;;5076686;28;20094;-71
2022/06/13 11:28:11;;;;;;;0.73;0.50;;;17.10;99.90;;;;;;5059945;28;20048;-71
2022/06/13 11:30:48;;;;;;;1.98;0.70;;;17.20;99.90;;;;;;5059834;28;20040;-71
2022/06/13 11:33:25;;;;;;;1.23;0.50;;;17.20;99.90;;;;;;5059793;28;20495;-72
2022/06/13 11:35:54;;;;;;;2.05;0.50;;;17.00;99.90;;;;;;5076986;28;20036;-72
2022/06/13 11:38:35;;;;;;;0.38;0.38;;;16.90;99.90;;;;;;5076435;28;20044;-72
2022/06/13 11:41:24;;;;;;;0.80;0.35;;;16.90;99.90;;;;;;5076584;28;20039;-71
2022/06/13 11:44:01;;;;;;;1.15;0.55;;;16.70;99.90;;;;;;5059754;28;20036;-71
2022/06/13 11:46:26;;;;;;;1.15;0.60;;;16.60;99.90;;;;;;5076416;28;20052;-71
2022/06/13 11:48:53;;;;;;;1.38;0.50;;;17.10;99.90;;;;;;5076401;28;20052;-71
2022/06/13 11:51:39;;;;;;;4.90;0.90;;;17.30;99.90;;;;;;5076147;28;20047;-72
2022/06/13 11:54:05;;;;;;;1.45;0.60;;;17.30;99.90;;;;;;5076146;28;20125;-72
2022/06/13 11:56:33;;;;;;;0.80;0.65;;;17.50;99.90;;;;;;5059850;28;20040;-72
2022/06/13 11:59:05;;;;;;;0.40;0.40;;;17.60;99.90;;;;;;5059732;28;20044;-72
2022/06/13 12:01:35;;;;;;;2.50;0.70;;;18.30;99.90;;;;;;5076703;28;20044;-72
2022/06/13 12:04:07;;;;;;;2.65;0.90;;;17.70;99.90;;;;;;5076010;28;20032;-72
2022/06/13 12:06:46;;;;;;;1.98;0.90;;;17.70;99.90;;;;;;5076459;28;20502;-72
2022/06/13 12:09:21;;;;;;;0.63;0.52;;;17.90;99.90;;;;;;5075883;28;20056;-71
2022/06/13 12:11:57;;;;;;;2.55;0.68;;;18.10;99.90;;;;;;5075910;28;20039;-72
2022/06/13 12:14:25;;;;;;;2.35;0.63;;;18.10;99.90;;;;;;5075831;28;20039;-72
2022/06/13 12:17:01;;;;;;;1.67;0.57;;;17.70;99.90;;;;;;5075651;28;20093;-71
2022/06/13 12:19:44;;;;;;;1.23;0.52;;;17.30;99.90;;;;;;5075958;28;20039;-70
2022/06/13 12:22:20;;;;;;;2.25;0.95;;;16.80;99.90;;;;;;5059596;28;20032;-71
2022/06/13 12:25:04;;;;;;;1.38;0.73;;;16.50;99.90;;;;;;5075544;28;20101;-71
2022/06/13 12:27:41;;;;;;;0.60;0.50;;;16.50;99.90;;;;;;5075988;28;20133;-71
2022/06/13 12:30:22;;;;;;;1.08;0.50;;;16.40;99.90;;;;;;5075955;28;20104;-71
2022/06/13 12:33:05;;;;;;;6.03;1.00;;;16.60;99.90;;;;;;5076016;28;20036;-71
2022/06/13 12:35:52;;;;;;;0.68;0.40;;;16.60;99.90;;;;;;5076745;28;20047;-71
2022/06/13 12:38:33;;;;;;;3.42;0.68;;;16.50;99.90;;;;;;5076089;28;20057;-71
2022/06/13 12:41:30;;;;;;;2.58;0.70;;;16.50;99.90;;;;;;5075846;28;20108;-71
2022/06/13 12:44:22;;;;;;;0.68;0.50;;;16.40;99.90;;;;;;5075476;28;20127;-71
2022/06/13 12:47:17;;;;;;;2.72;0.90;;;16.50;99.90;;;;;;5075591;28;20073;-71
2022/06/13 12:49:52;;;;;;;1.98;0.75;;;16.70;99.90;;;;;;5071716;28;20063;-71
2022/06/13 12:52:28;;;;;;;0.32;0.32;;;17.30;99.90;;;;;;5055228;28;20048;-71
2022/06/13 12:55:14;;;;;;;0.65;0.40;;;17.70;99.90;;;;;;5071907;28;20101;-71
2022/06/13 12:58:08;;;;;;;2.90;0.95;;;17.80;99.90;;;;;;5071885;28;20037;-71
2022/06/13 13:00:48;;;;;;;0.95;0.65;;;17.70;99.90;;;;;;5055555;28;20048;-71
2022/06/13 13:03:39;;;;;;;1.20;0.50;;;17.50;99.90;;;;;;5071932;28;20093;-71
2022/06/13 13:06:48;;;;;;;0.98;0.50;;;17.10;99.90;;;;;;5071621;28;20500;-71
2022/06/13 13:09:51;;;;;;;1.27;0.80;;;16.90;99.90;;;;;;5055248;28;20131;-71
2022/06/13 13:12:31;;;;;;;3.30;0.75;;;16.70;99.90;;;;;;5071814;28;20036;-71
2022/06/13 13:15:34;;;;;;;2.53;0.80;;;16.70;99.90;;;;;;5054773;28;20047;-71
2022/06/13 13:18:03;;;;;;;1.88;0.73;;;16.70;99.90;;;;;;5071547;28;20047;-71
2022/06/13 13:20:36;;;;;;;3.75;0.60;;;16.90;99.90;;;;;;5071397;28;20131;-70
2022/06/13 13:23:07;;;;;;;1.45;0.40;;;17.00;99.90;;;;;;5071614;28;20514;-71
2022/06/13 13:25:49;;;;;;;5.25;0.50;;;16.90;99.90;;;;;;5071677;28;20074;-71
2022/06/13 13:28:38;;;;;;;1.52;0.60;;;16.80;99.90;;;;;;5071405;28;20044;-72
2022/06/13 13:31:16;;;;;;;1.13;0.47;;;16.70;99.90;;;;;;5054811;28;20085;-71
2022/06/13 13:34:20;;;;;;;0.30;0.30;;;16.40;99.90;;;;;;5071462;28;20089;-71
2022/06/13 13:36:51;;;;;;;0.60;0.43;;;16.40;99.90;;;;;;4973843;28;20067;-71
2022/06/13 13:39:23;;;;;;;0.32;0.30;;;16.30;99.90;;;;;;5071458;28;20048;-71
2022/06/13 13:42:18;;;;;;;0.57;0.40;;;16.20;99.90;;;;;;5071298;28;20080;-72
2022/06/13 13:45:00;;;;;;;3.08;0.47;;;16.20;99.90;;;;;;5043734;28;20056;-71
2022/06/13 13:47:27;;;;;;;0.73;0.47;;;16.20;99.90;;;;;;5071793;28;20416;-71
2022/06/13 13:50:08;;;;;;;4.50;0.60;;;16.30;99.90;;;;;;5041191;28;20044;-71
2022/06/13 13:52:39;;;;;;;1.17;0.40;;;16.30;99.90;;;;;;5074493;28;20032;-71